sensor_id;sensor_type;location;lat;lon;timestamp;P1;durP1;ratioP1;P2;durP2;ratioP2
19519;SDS011;9904;52.246;20.898;2023-10-08T00:00:46;18.23;;;6.40;;
19519;SDS011;9904;52.246;20.898;2023-10-08T00:03:16;18.13;;;6.00;;
19519;SDS011;9904;52.246;20.898;2023-10-08T00:05:47;19.43;;;6.83;;
19519;SDS011;9904;52.246;20.898;2023-10-08T00:08:16;25.67;;;6.33;;
19519;SDS011;9904;52.246;20.898;2023-10-08T00:10:43;14.87;;;6.30;;
19519;SDS011;9904;52.246;20.898;2023-10-08T00:13:11;24.23;;;6.77;;
19519;SDS011;9904;52.246;20.898;2023-10-08T00:15:39;20.13;;;6.57;;
19519;SDS011;9904;52.246;20.898;2023-10-08T00:18:19;21.07;;;6.87;;
19519;SDS011;9904;52.246;20.898;2023-10-08T00:20:46;21.90;;;6.47;;
19519;SDS011;9904;52.246;20.898;2023-10-08T00:23:43;22.70;;;7.00;;
19519;SDS011;9904;52.246;20.898;2023-10-08T00:26:19;21.43;;;6.60;;
19519;SDS011;9904;52.246;20.898;2023-10-08T00:29:04;23.53;;;6.83;;
19519;SDS011;9904;52.246;20.898;2023-10-08T00:31:42;16.77;;;6.93;;
19519;SDS011;9904;52.246;20.898;2023-10-08T00:34:11;21.50;;;6.50;;
19519;SDS011;9904;52.246;20.898;2023-10-08T00:36:40;23.13;;;7.20;;
19519;SDS011;9904;52.246;20.898;2023-10-08T00:39:08;19.53;;;6.87;;
19519;SDS011;9904;52.246;20.898;2023-10-08T00:41:42;14.30;;;6.30;;
19519;SDS011;9904;52.246;20.898;2023-10-08T00:44:11;16.87;;;6.37;;
19519;SDS011;9904;52.246;20.898;2023-10-08T00:46:41;15.70;;;6.63;;
19519;SDS011;9904;52.246;20.898;2023-10-08T00:49:17;26.73;;;6.80;;
19519;SDS011;9904;52.246;20.898;2023-10-08T00:51:48;21.67;;;6.43;;
19519;SDS011;9904;52.246;20.898;2023-10-08T00:54:41;17.97;;;5.57;;
19519;SDS011;9904;52.246;20.898;2023-10-08T00:57:32;23.70;;;6.53;;
19519;SDS011;9904;52.246;20.898;2023-10-08T01:00:04;22.97;;;6.93;;
19519;SDS011;9904;52.246;20.898;2023-10-08T01:02:41;19.77;;;6.23;;
19519;SDS011;9904;52.246;20.898;2023-10-08T01:05:14;27.83;;;6.57;;
19519;SDS011;9904;52.246;20.898;2023-10-08T01:07:50;20.20;;;6.97;;
19519;SDS011;9904;52.246;20.898;2023-10-08T01:10:18;17.90;;;6.00;;
19519;SDS011;9904;52.246;20.898;2023-10-08T01:12:47;23.00;;;6.90;;
19519;SDS011;9904;52.246;20.898;2023-10-08T01:15:31;23.37;;;7.20;;
19519;SDS011;9904;52.246;20.898;2023-10-08T01:18:02;22.37;;;6.53;;
19519;SDS011;9904;52.246;20.898;2023-10-08T01:20:32;15.93;;;6.87;;
19519;SDS011;9904;52.246;20.898;2023-10-08T01:23:05;25.97;;;6.00;;
19519;SDS011;9904;52.246;20.898;2023-10-08T01:25:40;18.60;;;5.83;;
19519;SDS011;9904;52.246;20.898;2023-10-08T01:28:11;15.60;;;7.23;;
19519;SDS011;9904;52.246;20.898;2023-10-08T01:30:42;16.87;;;6.03;;
19519;SDS011;9904;52.246;20.898;2023-10-08T01:33:13;23.27;;;6.93;;
19519;SDS011;9904;52.246;20.898;2023-10-08T01:35:42;23.40;;;6.83;;
19519;SDS011;9904;52.246;20.898;2023-10-08T01:38:09;20.20;;;7.47;;
19519;SDS011;9904;52.246;20.898;2023-10-08T01:40:40;16.93;;;7.13;;
19519;SDS011;9904;52.246;20.898;2023-10-08T01:43:08;19.10;;;7.17;;
19519;SDS011;9904;52.246;20.898;2023-10-08T01:45:37;18.57;;;6.73;;
19519;SDS011;9904;52.246;20.898;2023-10-08T01:48:07;20.70;;;7.90;;
19519;SDS011;9904;52.246;20.898;2023-10-08T01:50:36;28.13;;;6.80;;
19519;SDS011;9904;52.246;20.898;2023-10-08T01:53:06;25.87;;;7.30;;
19519;SDS011;9904;52.246;20.898;2023-10-08T01:55:36;21.03;;;6.63;;
19519;SDS011;9904;52.246;20.898;2023-10-08T01:58:12;21.93;;;7.87;;
19519;SDS011;9904;52.246;20.898;2023-10-08T02:00:41;20.07;;;7.77;;
19519;SDS011;9904;52.246;20.898;2023-10-08T02:03:14;22.60;;;7.37;;
19519;SDS011;9904;52.246;20.898;2023-10-08T02:05:42;22.70;;;7.83;;
19519;SDS011;9904;52.246;20.898;2023-10-08T02:08:13;25.77;;;7.57;;
19519;SDS011;9904;52.246;20.898;2023-10-08T02:10:41;24.97;;;7.37;;
19519;SDS011;9904;52.246;20.898;2023-10-08T02:13:13;28.37;;;8.30;;
19519;SDS011;9904;52.246;20.898;2023-10-08T02:15:42;16.30;;;7.20;;
19519;SDS011;9904;52.246;20.898;2023-10-08T02:18:10;18.17;;;7.33;;
19519;SDS011;9904;52.246;20.898;2023-10-08T02:20:38;22.30;;;8.40;;
19519;SDS011;9904;52.246;20.898;2023-10-08T02:23:06;17.73;;;7.90;;
19519;SDS011;9904;52.246;20.898;2023-10-08T02:25:32;21.73;;;7.97;;
19519;SDS011;9904;52.246;20.898;2023-10-08T02:28:02;26.03;;;8.13;;
19519;SDS011;9904;52.246;20.898;2023-10-08T02:30:29;27.63;;;8.30;;
19519;SDS011;9904;52.246;20.898;2023-10-08T02:32:56;23.57;;;7.80;;
19519;SDS011;9904;52.246;20.898;2023-10-08T02:35:25;18.30;;;7.50;;
19519;SDS011;9904;52.246;20.898;2023-10-08T02:37:54;22.23;;;8.10;;
19519;SDS011;9904;52.246;20.898;2023-10-08T02:40:23;25.40;;;7.77;;
19519;SDS011;9904;52.246;20.898;2023-10-08T02:42:54;24.00;;;7.57;;
19519;SDS011;9904;52.246;20.898;2023-10-08T02:45:28;22.37;;;8.03;;
19519;SDS011;9904;52.246;20.898;2023-10-08T02:47:56;24.53;;;8.13;;
19519;SDS011;9904;52.246;20.898;2023-10-08T02:50:23;22.67;;;7.77;;
19519;SDS011;9904;52.246;20.898;2023-10-08T02:52:57;23.37;;;7.60;;
19519;SDS011;9904;52.246;20.898;2023-10-08T02:55:29;23.97;;;7.60;;
19519;SDS011;9904;52.246;20.898;2023-10-08T02:58:02;20.93;;;7.53;;
19519;SDS011;9904;52.246;20.898;2023-10-08T03:00:29;22.57;;;6.77;;
19519;SDS011;9904;52.246;20.898;2023-10-08T03:02:57;24.67;;;8.30;;
19519;SDS011;9904;52.246;20.898;2023-10-08T03:05:27;21.03;;;7.23;;
19519;SDS011;9904;52.246;20.898;2023-10-08T03:08:03;20.23;;;7.03;;
19519;SDS011;9904;52.246;20.898;2023-10-08T03:10:37;17.37;;;6.33;;
19519;SDS011;9904;52.246;20.898;2023-10-08T03:13:04;19.87;;;5.80;;
19519;SDS011;9904;52.246;20.898;2023-10-08T03:15:32;19.90;;;5.97;;
19519;SDS011;9904;52.246;20.898;2023-10-08T03:18:23;16.87;;;5.50;;
19519;SDS011;9904;52.246;20.898;2023-10-08T03:20:51;14.70;;;5.67;;
19519;SDS011;9904;52.246;20.898;2023-10-08T03:23:18;13.73;;;5.30;;
19519;SDS011;9904;52.246;20.898;2023-10-08T03:26:01;19.47;;;5.13;;
19519;SDS011;9904;52.246;20.898;2023-10-08T03:28:38;17.00;;;4.87;;
19519;SDS011;9904;52.246;20.898;2023-10-08T03:31:07;14.40;;;4.93;;
19519;SDS011;9904;52.246;20.898;2023-10-08T03:33:43;14.93;;;4.40;;
19519;SDS011;9904;52.246;20.898;2023-10-08T03:36:15;15.37;;;4.40;;
19519;SDS011;9904;52.246;20.898;2023-10-08T03:38:48;16.23;;;4.67;;
19519;SDS011;9904;52.246;20.898;2023-10-08T03:41:22;16.90;;;4.40;;
19519;SDS011;9904;52.246;20.898;2023-10-08T03:43:55;16.17;;;3.50;;
19519;SDS011;9904;52.246;20.898;2023-10-08T03:46:29;14.23;;;3.50;;
19519;SDS011;9904;52.246;20.898;2023-10-08T03:49:06;14.70;;;3.70;;
19519;SDS011;9904;52.246;20.898;2023-10-08T03:51:44;12.73;;;3.53;;
19519;SDS011;9904;52.246;20.898;2023-10-08T03:54:11;10.50;;;3.07;;
19519;SDS011;9904;52.246;20.898;2023-10-08T03:56:55;9.23;;;2.47;;
19519;SDS011;9904;52.246;20.898;2023-10-08T03:59:22;10.73;;;2.33;;
19519;SDS011;9904;52.246;20.898;2023-10-08T04:01:58;7.70;;;2.30;;
19519;SDS011;9904;52.246;20.898;2023-10-08T04:04:33;9.13;;;2.40;;
19519;SDS011;9904;52.246;20.898;2023-10-08T04:07:16;8.70;;;2.00;;
19519;SDS011;9904;52.246;20.898;2023-10-08T04:10:12;4.63;;;1.53;;
19519;SDS011;9904;52.246;20.898;2023-10-08T04:12:38;9.03;;;2.27;;
19519;SDS011;9904;52.246;20.898;2023-10-08T04:15:11;8.63;;;1.77;;
19519;SDS011;9904;52.246;20.898;2023-10-08T04:17:43;3.63;;;1.67;;
19519;SDS011;9904;52.246;20.898;2023-10-08T04:20:11;7.83;;;2.17;;
19519;SDS011;9904;52.246;20.898;2023-10-08T04:23:00;4.87;;;1.40;;
19519;SDS011;9904;52.246;20.898;2023-10-08T04:25:32;4.90;;;1.40;;
19519;SDS011;9904;52.246;20.898;2023-10-08T04:28:00;7.90;;;1.00;;
19519;SDS011;9904;52.246;20.898;2023-10-08T04:30:27;4.10;;;1.10;;
19519;SDS011;9904;52.246;20.898;2023-10-08T04:33:02;3.40;;;1.00;;
19519;SDS011;9904;52.246;20.898;2023-10-08T04:35:34;3.03;;;1.30;;
19519;SDS011;9904;52.246;20.898;2023-10-08T04:38:15;5.57;;;1.10;;
19519;SDS011;9904;52.246;20.898;2023-10-08T04:40:45;3.50;;;1.10;;
19519;SDS011;9904;52.246;20.898;2023-10-08T04:43:15;4.27;;;1.10;;
19519;SDS011;9904;52.246;20.898;2023-10-08T04:45:52;4.03;;;1.17;;
19519;SDS011;9904;52.246;20.898;2023-10-08T04:48:19;2.13;;;0.90;;
19519;SDS011;9904;52.246;20.898;2023-10-08T04:50:50;6.33;;;1.20;;
19519;SDS011;9904;52.246;20.898;2023-10-08T04:53:28;2.87;;;0.97;;
19519;SDS011;9904;52.246;20.898;2023-10-08T04:56:04;3.00;;;1.10;;
19519;SDS011;9904;52.246;20.898;2023-10-08T04:58:33;4.90;;;1.00;;
19519;SDS011;9904;52.246;20.898;2023-10-08T05:01:03;4.07;;;0.83;;
19519;SDS011;9904;52.246;20.898;2023-10-08T05:03:50;3.83;;;1.03;;
19519;SDS011;9904;52.246;20.898;2023-10-08T05:06:24;1.80;;;0.90;;
19519;SDS011;9904;52.246;20.898;2023-10-08T05:09:10;3.73;;;1.17;;
19519;SDS011;9904;52.246;20.898;2023-10-08T05:11:39;2.37;;;0.73;;
19519;SDS011;9904;52.246;20.898;2023-10-08T05:14:19;5.60;;;1.13;;
19519;SDS011;9904;52.246;20.898;2023-10-08T05:17:05;3.83;;;0.90;;
19519;SDS011;9904;52.246;20.898;2023-10-08T05:19:37;3.77;;;0.80;;
19519;SDS011;9904;52.246;20.898;2023-10-08T05:22:10;2.77;;;1.30;;
19519;SDS011;9904;52.246;20.898;2023-10-08T05:24:58;2.37;;;1.03;;
19519;SDS011;9904;52.246;20.898;2023-10-08T05:27:45;2.50;;;0.80;;
19519;SDS011;9904;52.246;20.898;2023-10-08T05:30:18;3.00;;;1.00;;
19519;SDS011;9904;52.246;20.898;2023-10-08T05:33:09;2.20;;;1.20;;
19519;SDS011;9904;52.246;20.898;2023-10-08T05:35:52;2.20;;;0.97;;
19519;SDS011;9904;52.246;20.898;2023-10-08T05:38:39;1.77;;;0.80;;
19519;SDS011;9904;52.246;20.898;2023-10-08T05:41:15;7.70;;;0.90;;
19519;SDS011;9904;52.246;20.898;2023-10-08T05:43:56;3.10;;;0.93;;
19519;SDS011;9904;52.246;20.898;2023-10-08T05:46:41;6.00;;;0.90;;
19519;SDS011;9904;52.246;20.898;2023-10-08T05:49:23;4.43;;;1.20;;
19519;SDS011;9904;52.246;20.898;2023-10-08T05:51:59;4.43;;;1.00;;
19519;SDS011;9904;52.246;20.898;2023-10-08T05:54:25;4.67;;;1.00;;
19519;SDS011;9904;52.246;20.898;2023-10-08T05:59:37;1.83;;;0.80;;
19519;SDS011;9904;52.246;20.898;2023-10-08T06:02:30;3.17;;;1.10;;
19519;SDS011;9904;52.246;20.898;2023-10-08T06:05:05;3.83;;;0.90;;
19519;SDS011;9904;52.246;20.898;2023-10-08T06:10:20;4.90;;;0.90;;
19519;SDS011;9904;52.246;20.898;2023-10-08T06:13:00;8.33;;;1.27;;
19519;SDS011;9904;52.246;20.898;2023-10-08T06:15:40;1.73;;;0.90;;
19519;SDS011;9904;52.246;20.898;2023-10-08T06:18:12;2.23;;;0.93;;
19519;SDS011;9904;52.246;20.898;2023-10-08T06:20:41;1.03;;;0.70;;
19519;SDS011;9904;52.246;20.898;2023-10-08T06:23:11;3.77;;;1.00;;
19519;SDS011;9904;52.246;20.898;2023-10-08T06:25:42;1.73;;;0.70;;
19519;SDS011;9904;52.246;20.898;2023-10-08T06:28:15;3.63;;;0.80;;
19519;SDS011;9904;52.246;20.898;2023-10-08T06:30:46;3.23;;;0.90;;
19519;SDS011;9904;52.246;20.898;2023-10-08T06:33:15;2.23;;;0.60;;
19519;SDS011;9904;52.246;20.898;2023-10-08T06:35:46;5.80;;;0.80;;
19519;SDS011;9904;52.246;20.898;2023-10-08T06:38:29;1.67;;;0.60;;
19519;SDS011;9904;52.246;20.898;2023-10-08T06:41:02;2.80;;;0.80;;
19519;SDS011;9904;52.246;20.898;2023-10-08T06:43:42;1.70;;;0.50;;
19519;SDS011;9904;52.246;20.898;2023-10-08T06:46:16;4.13;;;0.90;;
19519;SDS011;9904;52.246;20.898;2023-10-08T06:48:45;3.47;;;0.80;;
19519;SDS011;9904;52.246;20.898;2023-10-08T06:51:13;4.00;;;0.87;;
19519;SDS011;9904;52.246;20.898;2023-10-08T06:53:43;1.87;;;0.80;;
19519;SDS011;9904;52.246;20.898;2023-10-08T06:56:12;1.27;;;0.53;;
19519;SDS011;9904;52.246;20.898;2023-10-08T06:58:42;3.63;;;0.93;;
19519;SDS011;9904;52.246;20.898;2023-10-08T07:01:16;3.07;;;0.53;;
19519;SDS011;9904;52.246;20.898;2023-10-08T07:03:51;1.93;;;0.60;;
19519;SDS011;9904;52.246;20.898;2023-10-08T07:06:19;3.87;;;0.90;;
19519;SDS011;9904;52.246;20.898;2023-10-08T07:08:58;2.57;;;0.70;;
19519;SDS011;9904;52.246;20.898;2023-10-08T07:11:26;3.03;;;0.70;;
19519;SDS011;9904;52.246;20.898;2023-10-08T07:13:54;2.10;;;0.70;;
19519;SDS011;9904;52.246;20.898;2023-10-08T07:16:22;2.03;;;0.70;;
19519;SDS011;9904;52.246;20.898;2023-10-08T07:18:49;3.27;;;0.80;;
19519;SDS011;9904;52.246;20.898;2023-10-08T07:21:19;4.60;;;0.80;;
19519;SDS011;9904;52.246;20.898;2023-10-08T07:23:50;4.30;;;0.63;;
19519;SDS011;9904;52.246;20.898;2023-10-08T07:26:24;2.70;;;0.70;;
19519;SDS011;9904;52.246;20.898;2023-10-08T07:29:04;6.40;;;0.70;;
19519;SDS011;9904;52.246;20.898;2023-10-08T07:31:37;4.57;;;0.80;;
19519;SDS011;9904;52.246;20.898;2023-10-08T07:34:08;2.97;;;0.60;;
19519;SDS011;9904;52.246;20.898;2023-10-08T07:51:57;1.43;;;0.63;;
19519;SDS011;9904;52.246;20.898;2023-10-08T07:54:25;2.50;;;0.70;;
19519;SDS011;9904;52.246;20.898;2023-10-08T07:56:55;1.23;;;0.60;;
19519;SDS011;9904;52.246;20.898;2023-10-08T07:59:39;1.30;;;0.47;;
19519;SDS011;9904;52.246;20.898;2023-10-08T08:02:14;2.57;;;0.70;;
19519;SDS011;9904;52.246;20.898;2023-10-08T08:04:44;2.03;;;0.50;;
19519;SDS011;9904;52.246;20.898;2023-10-08T08:07:12;2.93;;;0.63;;
19519;SDS011;9904;52.246;20.898;2023-10-08T08:09:46;4.40;;;0.70;;
19519;SDS011;9904;52.246;20.898;2023-10-08T08:12:19;2.05;;;0.73;;
19519;SDS011;9904;52.246;20.898;2023-10-08T08:14:51;3.08;;;0.90;;
19519;SDS011;9904;52.246;20.898;2023-10-08T08:17:19;3.10;;;0.90;;
19519;SDS011;9904;52.246;20.898;2023-10-08T08:19:47;2.37;;;0.73;;
19519;SDS011;9904;52.246;20.898;2023-10-08T08:22:15;1.67;;;0.70;;
19519;SDS011;9904;52.246;20.898;2023-10-08T08:24:57;2.50;;;0.73;;
19519;SDS011;9904;52.246;20.898;2023-10-08T08:27:42;4.03;;;0.90;;
19519;SDS011;9904;52.246;20.898;2023-10-08T08:30:15;2.67;;;0.70;;
19519;SDS011;9904;52.246;20.898;2023-10-08T08:32:43;4.97;;;1.30;;
19519;SDS011;9904;52.246;20.898;2023-10-08T08:35:18;2.93;;;0.77;;
19519;SDS011;9904;52.246;20.898;2023-10-08T08:37:46;3.47;;;0.80;;
19519;SDS011;9904;52.246;20.898;2023-10-08T08:40:18;1.53;;;0.60;;
19519;SDS011;9904;52.246;20.898;2023-10-08T08:42:49;2.43;;;0.67;;
19519;SDS011;9904;52.246;20.898;2023-10-08T08:45:20;2.40;;;1.00;;
19519;SDS011;9904;52.246;20.898;2023-10-08T08:47:54;0.70;;;0.50;;
19519;SDS011;9904;52.246;20.898;2023-10-08T08:50:22;1.33;;;0.60;;
19519;SDS011;9904;52.246;20.898;2023-10-08T08:52:49;4.90;;;0.97;;
19519;SDS011;9904;52.246;20.898;2023-10-08T08:55:18;3.63;;;0.77;;
19519;SDS011;9904;52.246;20.898;2023-10-08T08:57:48;4.40;;;0.60;;
19519;SDS011;9904;52.246;20.898;2023-10-08T09:00:17;3.07;;;0.90;;
19519;SDS011;9904;52.246;20.898;2023-10-08T09:02:45;3.43;;;0.83;;
19519;SDS011;9904;52.246;20.898;2023-10-08T09:05:15;3.50;;;0.80;;
19519;SDS011;9904;52.246;20.898;2023-10-08T09:10:31;2.73;;;0.70;;
19519;SDS011;9904;52.246;20.898;2023-10-08T09:13:04;3.33;;;0.70;;
19519;SDS011;9904;52.246;20.898;2023-10-08T09:15:31;4.50;;;0.90;;
19519;SDS011;9904;52.246;20.898;2023-10-08T09:17:58;2.27;;;0.77;;
19519;SDS011;9904;52.246;20.898;2023-10-08T09:20:28;1.87;;;0.63;;
19519;SDS011;9904;52.246;20.898;2023-10-08T09:23:14;5.30;;;0.80;;
19519;SDS011;9904;52.246;20.898;2023-10-08T09:25:48;3.10;;;0.70;;
19519;SDS011;9904;52.246;20.898;2023-10-08T09:28:16;1.70;;;0.57;;
19519;SDS011;9904;52.246;20.898;2023-10-08T09:30:44;3.33;;;0.80;;
19519;SDS011;9904;52.246;20.898;2023-10-08T09:33:12;3.13;;;0.90;;
19519;SDS011;9904;52.246;20.898;2023-10-08T09:35:40;1.43;;;0.60;;
19519;SDS011;9904;52.246;20.898;2023-10-08T09:38:07;3.60;;;0.50;;
19519;SDS011;9904;52.246;20.898;2023-10-08T09:40:42;3.23;;;0.80;;
19519;SDS011;9904;52.246;20.898;2023-10-08T09:43:10;3.30;;;0.70;;
19519;SDS011;9904;52.246;20.898;2023-10-08T09:45:40;1.00;;;0.50;;
19519;SDS011;9904;52.246;20.898;2023-10-08T09:48:15;2.70;;;0.60;;
19519;SDS011;9904;52.246;20.898;2023-10-08T09:50:45;2.43;;;0.40;;
19519;SDS011;9904;52.246;20.898;2023-10-08T09:53:13;3.33;;;0.60;;
19519;SDS011;9904;52.246;20.898;2023-10-08T09:55:44;2.43;;;0.80;;
19519;SDS011;9904;52.246;20.898;2023-10-08T09:58:21;1.70;;;0.60;;
19519;SDS011;9904;52.246;20.898;2023-10-08T10:00:51;4.70;;;0.60;;
19519;SDS011;9904;52.246;20.898;2023-10-08T10:03:24;1.90;;;0.60;;
19519;SDS011;9904;52.246;20.898;2023-10-08T10:05:54;1.57;;;0.67;;
19519;SDS011;9904;52.246;20.898;2023-10-08T10:08:27;2.47;;;0.70;;
19519;SDS011;9904;52.246;20.898;2023-10-08T10:10:59;1.07;;;0.57;;
19519;SDS011;9904;52.246;20.898;2023-10-08T10:13:27;2.53;;;1.27;;
19519;SDS011;9904;52.246;20.898;2023-10-08T10:16:23;1.83;;;0.77;;
19519;SDS011;9904;52.246;20.898;2023-10-08T10:18:51;1.33;;;0.50;;
19519;SDS011;9904;52.246;20.898;2023-10-08T10:21:28;1.60;;;0.60;;
19519;SDS011;9904;52.246;20.898;2023-10-08T10:23:59;3.97;;;0.77;;
19519;SDS011;9904;52.246;20.898;2023-10-08T10:26:30;1.60;;;0.70;;
19519;SDS011;9904;52.246;20.898;2023-10-08T10:31:34;1.60;;;0.73;;
19519;SDS011;9904;52.246;20.898;2023-10-08T10:34:07;2.47;;;0.60;;
19519;SDS011;9904;52.246;20.898;2023-10-08T10:36:38;3.60;;;0.67;;
19519;SDS011;9904;52.246;20.898;2023-10-08T10:39:07;6.60;;;0.70;;
19519;SDS011;9904;52.246;20.898;2023-10-08T10:41:45;2.73;;;0.70;;
19519;SDS011;9904;52.246;20.898;2023-10-08T10:44:15;1.90;;;0.63;;
19519;SDS011;9904;52.246;20.898;2023-10-08T10:46:43;1.90;;;0.87;;
19519;SDS011;9904;52.246;20.898;2023-10-08T10:49:20;3.17;;;0.90;;
19519;SDS011;9904;52.246;20.898;2023-10-08T10:51:48;5.00;;;0.70;;
19519;SDS011;9904;52.246;20.898;2023-10-08T10:54:24;4.90;;;0.83;;
19519;SDS011;9904;52.246;20.898;2023-10-08T10:56:51;2.60;;;0.53;;
19519;SDS011;9904;52.246;20.898;2023-10-08T10:59:43;2.87;;;0.80;;
19519;SDS011;9904;52.246;20.898;2023-10-08T11:02:19;2.30;;;0.40;;
19519;SDS011;9904;52.246;20.898;2023-10-08T11:04:57;1.50;;;0.60;;
19519;SDS011;9904;52.246;20.898;2023-10-08T11:07:34;3.23;;;0.70;;
19519;SDS011;9904;52.246;20.898;2023-10-08T11:10:04;1.47;;;0.50;;
19519;SDS011;9904;52.246;20.898;2023-10-08T11:12:36;2.13;;;0.80;;
19519;SDS011;9904;52.246;20.898;2023-10-08T11:15:13;1.47;;;0.70;;
19519;SDS011;9904;52.246;20.898;2023-10-08T11:17:44;1.20;;;0.50;;
19519;SDS011;9904;52.246;20.898;2023-10-08T11:20:26;6.37;;;1.13;;
19519;SDS011;9904;52.246;20.898;2023-10-08T11:22:55;2.33;;;1.00;;
19519;SDS011;9904;52.246;20.898;2023-10-08T11:25:22;1.40;;;0.60;;
19519;SDS011;9904;52.246;20.898;2023-10-08T11:27:54;3.33;;;0.63;;
19519;SDS011;9904;52.246;20.898;2023-10-08T11:30:29;5.17;;;0.80;;
19519;SDS011;9904;52.246;20.898;2023-10-08T11:32:58;2.73;;;0.70;;
19519;SDS011;9904;52.246;20.898;2023-10-08T11:35:26;2.40;;;0.40;;
19519;SDS011;9904;52.246;20.898;2023-10-08T11:38:00;1.20;;;0.60;;
19519;SDS011;9904;52.246;20.898;2023-10-08T11:40:29;1.60;;;0.50;;
19519;SDS011;9904;52.246;20.898;2023-10-08T11:43:01;2.67;;;0.63;;
19519;SDS011;9904;52.246;20.898;2023-10-08T11:45:29;1.70;;;0.80;;
19519;SDS011;9904;52.246;20.898;2023-10-08T11:48:05;1.03;;;0.60;;
19519;SDS011;9904;52.246;20.898;2023-10-08T11:50:38;3.27;;;0.60;;
19519;SDS011;9904;52.246;20.898;2023-10-08T11:53:07;6.23;;;0.70;;
19519;SDS011;9904;52.246;20.898;2023-10-08T11:55:36;3.07;;;0.87;;
19519;SDS011;9904;52.246;20.898;2023-10-08T11:58:06;3.53;;;0.70;;
19519;SDS011;9904;52.246;20.898;2023-10-08T12:00:43;1.80;;;0.70;;
19519;SDS011;9904;52.246;20.898;2023-10-08T12:03:13;2.00;;;0.70;;
19519;SDS011;9904;52.246;20.898;2023-10-08T12:05:46;3.37;;;0.70;;
19519;SDS011;9904;52.246;20.898;2023-10-08T12:08:19;3.43;;;1.00;;
19519;SDS011;9904;52.246;20.898;2023-10-08T12:10:47;1.83;;;0.73;;
19519;SDS011;9904;52.246;20.898;2023-10-08T12:13:15;1.00;;;0.60;;
19519;SDS011;9904;52.246;20.898;2023-10-08T12:15:45;2.53;;;0.70;;
19519;SDS011;9904;52.246;20.898;2023-10-08T12:18:14;3.73;;;0.90;;
19519;SDS011;9904;52.246;20.898;2023-10-08T12:20:55;7.43;;;0.87;;
19519;SDS011;9904;52.246;20.898;2023-10-08T12:23:22;3.40;;;0.90;;
19519;SDS011;9904;52.246;20.898;2023-10-08T12:25:52;2.80;;;0.80;;
19519;SDS011;9904;52.246;20.898;2023-10-08T12:28:22;4.30;;;0.97;;
19519;SDS011;9904;52.246;20.898;2023-10-08T12:30:50;3.40;;;0.80;;
19519;SDS011;9904;52.246;20.898;2023-10-08T12:33:22;6.50;;;0.80;;
19519;SDS011;9904;52.246;20.898;2023-10-08T12:35:53;3.53;;;0.77;;
19519;SDS011;9904;52.246;20.898;2023-10-08T12:38:22;4.53;;;0.80;;
19519;SDS011;9904;52.246;20.898;2023-10-08T12:40:49;3.90;;;0.83;;
19519;SDS011;9904;52.246;20.898;2023-10-08T12:43:22;3.67;;;0.70;;
19519;SDS011;9904;52.246;20.898;2023-10-08T12:45:54;1.97;;;0.63;;
19519;SDS011;9904;52.246;20.898;2023-10-08T12:48:26;6.60;;;0.70;;
19519;SDS011;9904;52.246;20.898;2023-10-08T12:50:55;2.17;;;0.80;;
19519;SDS011;9904;52.246;20.898;2023-10-08T12:53:27;1.43;;;0.80;;
19519;SDS011;9904;52.246;20.898;2023-10-08T12:56:06;2.10;;;0.70;;
19519;SDS011;9904;52.246;20.898;2023-10-08T12:58:34;6.73;;;0.83;;
19519;SDS011;9904;52.246;20.898;2023-10-08T13:01:08;1.40;;;0.90;;
19519;SDS011;9904;52.246;20.898;2023-10-08T13:03:39;2.13;;;0.80;;
19519;SDS011;9904;52.246;20.898;2023-10-08T13:06:17;3.00;;;0.70;;
19519;SDS011;9904;52.246;20.898;2023-10-08T13:08:49;2.70;;;1.00;;
19519;SDS011;9904;52.246;20.898;2023-10-08T13:11:19;2.80;;;0.80;;
19519;SDS011;9904;52.246;20.898;2023-10-08T13:13:53;5.53;;;0.80;;
19519;SDS011;9904;52.246;20.898;2023-10-08T13:16:25;4.93;;;0.70;;
19519;SDS011;9904;52.246;20.898;2023-10-08T13:18:57;10.00;;;0.80;;
19519;SDS011;9904;52.246;20.898;2023-10-08T13:21:25;3.20;;;0.80;;
19519;SDS011;9904;52.246;20.898;2023-10-08T13:23:52;10.40;;;0.87;;
19519;SDS011;9904;52.246;20.898;2023-10-08T13:26:19;2.53;;;0.50;;
19519;SDS011;9904;52.246;20.898;2023-10-08T13:28:49;4.93;;;0.80;;
19519;SDS011;9904;52.246;20.898;2023-10-08T13:31:15;3.40;;;0.63;;
19519;SDS011;9904;52.246;20.898;2023-10-08T13:33:44;2.37;;;0.60;;
19519;SDS011;9904;52.246;20.898;2023-10-08T13:36:15;6.43;;;0.80;;
19519;SDS011;9904;52.246;20.898;2023-10-08T13:38:45;8.47;;;0.70;;
19519;SDS011;9904;52.246;20.898;2023-10-08T13:41:15;8.67;;;0.97;;
19519;SDS011;9904;52.246;20.898;2023-10-08T13:43:42;1.57;;;0.70;;
19519;SDS011;9904;52.246;20.898;2023-10-08T13:46:13;4.67;;;0.57;;
19519;SDS011;9904;52.246;20.898;2023-10-08T13:48:45;3.77;;;0.90;;
19519;SDS011;9904;52.246;20.898;2023-10-08T13:51:16;3.80;;;0.70;;
19519;SDS011;9904;52.246;20.898;2023-10-08T13:53:50;3.13;;;0.70;;
19519;SDS011;9904;52.246;20.898;2023-10-08T13:56:29;1.63;;;0.67;;
19519;SDS011;9904;52.246;20.898;2023-10-08T13:58:58;3.50;;;1.00;;
19519;SDS011;9904;52.246;20.898;2023-10-08T14:01:40;6.37;;;0.67;;
19519;SDS011;9904;52.246;20.898;2023-10-08T14:04:12;3.80;;;0.90;;
19519;SDS011;9904;52.246;20.898;2023-10-08T14:06:47;7.13;;;1.10;;
19519;SDS011;9904;52.246;20.898;2023-10-08T14:09:21;2.53;;;0.80;;
19519;SDS011;9904;52.246;20.898;2023-10-08T14:11:58;2.43;;;0.60;;
19519;SDS011;9904;52.246;20.898;2023-10-08T14:14:26;3.07;;;0.50;;
19519;SDS011;9904;52.246;20.898;2023-10-08T14:17:00;5.47;;;1.10;;
19519;SDS011;9904;52.246;20.898;2023-10-08T14:19:35;2.00;;;0.83;;
19519;SDS011;9904;52.246;20.898;2023-10-08T14:22:09;0.83;;;0.60;;
19519;SDS011;9904;52.246;20.898;2023-10-08T14:24:41;4.63;;;1.17;;
19519;SDS011;9904;52.246;20.898;2023-10-08T14:27:07;1.60;;;0.77;;
19519;SDS011;9904;52.246;20.898;2023-10-08T14:29:38;3.93;;;0.70;;
19519;SDS011;9904;52.246;20.898;2023-10-08T14:32:10;3.80;;;1.00;;
19519;SDS011;9904;52.246;20.898;2023-10-08T14:34:37;3.63;;;0.90;;
19519;SDS011;9904;52.246;20.898;2023-10-08T14:37:14;2.33;;;0.70;;
19519;SDS011;9904;52.246;20.898;2023-10-08T14:40:04;6.43;;;0.73;;
19519;SDS011;9904;52.246;20.898;2023-10-08T14:42:50;4.20;;;1.17;;
19519;SDS011;9904;52.246;20.898;2023-10-08T14:45:29;2.63;;;1.07;;
19519;SDS011;9904;52.246;20.898;2023-10-08T14:47:58;1.63;;;0.60;;
19519;SDS011;9904;52.246;20.898;2023-10-08T14:50:25;1.67;;;1.00;;
19519;SDS011;9904;52.246;20.898;2023-10-08T14:52:59;3.87;;;0.73;;
19519;SDS011;9904;52.246;20.898;2023-10-08T14:55:27;8.10;;;0.70;;
19519;SDS011;9904;52.246;20.898;2023-10-08T14:57:55;2.40;;;0.60;;
19519;SDS011;9904;52.246;20.898;2023-10-08T15:00:23;5.17;;;0.60;;
19519;SDS011;9904;52.246;20.898;2023-10-08T15:02:55;3.97;;;0.70;;
19519;SDS011;9904;52.246;20.898;2023-10-08T15:05:22;3.77;;;1.00;;
19519;SDS011;9904;52.246;20.898;2023-10-08T15:07:49;3.63;;;1.00;;
19519;SDS011;9904;52.246;20.898;2023-10-08T15:10:18;1.80;;;0.90;;
19519;SDS011;9904;52.246;20.898;2023-10-08T15:12:45;4.87;;;0.80;;
19519;SDS011;9904;52.246;20.898;2023-10-08T15:15:11;4.37;;;0.80;;
19519;SDS011;9904;52.246;20.898;2023-10-08T15:17:42;0.63;;;0.40;;
19519;SDS011;9904;52.246;20.898;2023-10-08T15:20:10;2.70;;;0.70;;
19519;SDS011;9904;52.246;20.898;2023-10-08T15:22:47;3.73;;;0.60;;
19519;SDS011;9904;52.246;20.898;2023-10-08T15:25:16;3.77;;;0.80;;
19519;SDS011;9904;52.246;20.898;2023-10-08T15:27:44;3.37;;;0.70;;
19519;SDS011;9904;52.246;20.898;2023-10-08T15:30:13;3.30;;;0.90;;
19519;SDS011;9904;52.246;20.898;2023-10-08T15:32:43;1.27;;;0.63;;
19519;SDS011;9904;52.246;20.898;2023-10-08T15:35:12;9.50;;;0.90;;
19519;SDS011;9904;52.246;20.898;2023-10-08T15:37:46;3.70;;;0.90;;
19519;SDS011;9904;52.246;20.898;2023-10-08T15:40:13;3.30;;;1.00;;